createdAt,value
2022-09-21T00:02:05.227Z,14.76
2022-09-21T00:07:08.633Z,14.67
2022-09-21T00:12:12.501Z,14.70
2022-09-21T00:17:17.257Z,14.57
2022-09-21T00:22:20.659Z,14.53
2022-09-21T00:27:29.910Z,14.47
2022-09-21T00:32:36.227Z,14.48
2022-09-21T00:37:39.557Z,14.38
2022-09-21T00:42:42.942Z,14.31
2022-09-21T00:47:50.045Z,14.40
2022-09-21T00:52:56.952Z,14.35
2022-09-21T00:58:02.796Z,14.31
2022-09-21T01:03:08.527Z,14.28
2022-09-21T01:08:13.454Z,14.24
2022-09-21T01:13:25.263Z,14.15
2022-09-21T01:18:34.628Z,14.06
2022-09-21T01:24:09.325Z,14.08
2022-09-21T01:29:21.418Z,14.03
2022-09-21T01:34:29.143Z,13.97
2022-09-21T01:39:34.849Z,13.96
2022-09-21T01:44:40.510Z,13.88
2022-09-21T01:49:46.432Z,13.83
2022-09-21T01:54:53.785Z,13.73
2022-09-21T02:00:00.377Z,13.72
2022-09-21T02:05:05.360Z,13.68
2022-09-21T02:10:09.836Z,13.67
2022-09-21T02:15:14.786Z,13.69
2022-09-21T02:20:21.188Z,13.54
2022-09-21T02:25:36.060Z,13.57
2022-09-21T02:30:42.270Z,13.54
2022-09-21T02:35:52.044Z,13.46
2022-09-21T02:40:59.009Z,13.46
2022-09-21T02:46:06.450Z,13.35
2022-09-21T02:51:12.768Z,13.27
2022-09-21T02:56:17.077Z,13.31
2022-09-21T03:01:22.135Z,13.25
2022-09-21T03:06:25.554Z,13.22
2022-09-21T03:11:29.112Z,12.97
2022-09-21T03:16:33.852Z,12.89
2022-09-21T03:21:39.203Z,12.90
2022-09-21T03:26:46.099Z,12.81
2022-09-21T03:31:52.405Z,12.78
2022-09-21T03:36:55.795Z,12.74
2022-09-21T03:41:59.766Z,12.70
2022-09-21T03:47:06.640Z,12.60
2022-09-21T03:52:09.997Z,12.56
2022-09-21T03:57:13.345Z,12.49
2022-09-21T04:02:18.185Z,12.39
2022-09-21T04:07:21.694Z,12.48
2022-09-21T04:12:25.042Z,12.48
2022-09-21T04:17:31.443Z,12.40
2022-09-21T04:22:36.334Z,12.40
2022-09-21T04:27:42.277Z,12.27
2022-09-21T04:32:47.454Z,12.21
2022-09-21T04:37:50.864Z,12.24
2022-09-21T04:42:54.305Z,12.21
2022-09-21T04:47:59.030Z,12.27
2022-09-21T04:53:02.365Z,12.25
2022-09-21T04:58:05.742Z,12.20
2022-09-21T05:03:10.600Z,12.18
2022-09-21T05:08:13.963Z,12.04
2022-09-21T05:13:19.856Z,12.17
2022-09-21T05:18:24.878Z,12.10
2022-09-21T05:23:29.493Z,12.10
2022-09-21T05:28:37.726Z,12.19
2022-09-21T05:33:49.585Z,12.16
2022-09-21T05:38:53.553Z,12.28
2022-09-21T05:43:57.343Z,12.39
2022-09-21T05:49:06.134Z,12.47
2022-09-21T05:54:12.532Z,12.61
2022-09-21T05:59:36.783Z,12.85
2022-09-21T06:04:42.205Z,12.96
2022-09-21T06:09:45.675Z,13.18
2022-09-21T06:14:49.232Z,13.32
2022-09-21T06:19:54.078Z,13.51
2022-09-21T06:24:57.459Z,14.00
2022-09-21T06:30:00.839Z,14.20
2022-09-21T06:35:06.330Z,14.39
2022-09-21T06:40:10.434Z,14.51
2022-09-21T06:45:13.898Z,14.70
2022-09-21T06:50:18.734Z,14.97
2022-09-21T06:55:22.229Z,15.15
2022-09-21T07:00:25.613Z,15.28
2022-09-21T07:05:30.429Z,15.46
2022-09-21T07:10:33.800Z,15.76
2022-09-21T07:15:37.324Z,16.00
2022-09-21T07:20:42.468Z,16.27
2022-09-21T07:25:48.806Z,16.38
2022-09-21T07:30:52.183Z,16.53
2022-09-21T07:35:57.175Z,16.99
2022-09-21T07:41:03.019Z,17.15
2022-09-21T07:46:06.829Z,17.31
2022-09-21T07:51:14.001Z,17.65
2022-09-21T07:56:20.090Z,17.72
2022-09-21T08:01:24.243Z,18.04
2022-09-21T08:06:30.922Z,18.06
2022-09-21T08:11:34.489Z,18.41
2022-09-21T08:16:39.374Z,18.54
2022-09-21T08:21:44.495Z,18.29
2022-09-21T08:26:48.278Z,17.99
2022-09-21T08:31:52.267Z,18.67
2022-09-21T08:36:57.012Z,19.07
2022-09-21T08:42:07.173Z,19.73
2022-09-21T08:47:14.146Z,19.61
2022-09-21T08:52:20.954Z,20.17
2022-09-21T08:57:30.031Z,20.47
2022-09-21T09:02:44.209Z,21.09
2022-09-21T09:07:59.469Z,20.96
2022-09-21T09:13:14.063Z,20.96
2022-09-21T09:18:24.357Z,21.63
2022-09-21T09:23:32.286Z,21.51
2022-09-21T09:28:37.249Z,21.57
2022-09-21T09:33:47.448Z,21.15
2022-09-21T09:38:57.288Z,21.45
2022-09-21T09:44:11.843Z,22.33
2022-09-21T09:49:24.116Z,22.57
2022-09-21T09:54:31.147Z,23.01
2022-09-21T09:59:37.209Z,22.66
2022-09-21T10:04:55.653Z,23.12
2022-09-21T10:10:00.423Z,20.80
2022-09-21T10:15:05.066Z,22.60
2022-09-21T10:20:16.494Z,23.20
2022-09-21T10:25:21.694Z,22.75
2022-09-21T10:30:35.934Z,23.50
2022-09-21T10:35:50.170Z,23.72
2022-09-21T10:40:55.244Z,24.50
2022-09-21T10:45:58.887Z,24.45
2022-09-21T10:51:02.421Z,24.52
2022-09-21T10:56:17.049Z,22.93
2022-09-21T11:01:23.474Z,23.28
2022-09-21T11:06:30.564Z,24.89
2022-09-21T11:11:42.440Z,25.31
2022-09-21T11:16:49.190Z,25.50
2022-09-21T11:21:56.310Z,24.78
2022-09-21T11:27:05.021Z,24.90
2022-09-21T11:32:20.215Z,25.39
2022-09-21T11:37:37.294Z,26.09
2022-09-21T11:42:51.698Z,26.47
2022-09-21T11:48:07.544Z,26.78
2022-09-21T11:53:20.981Z,23.65
2022-09-21T11:58:31.442Z,24.38
2022-09-21T12:03:45.986Z,24.52
2022-09-21T12:09:17.808Z,23.73
2022-09-21T12:14:28.546Z,26.30
2022-09-21T12:19:40.248Z,26.75
2022-09-21T12:24:47.554Z,27.19
2022-09-21T12:29:54.681Z,27.16
2022-09-21T12:35:01.988Z,27.52
2022-09-21T12:40:08.399Z,24.44
2022-09-21T12:45:18.273Z,27.09
2022-09-21T12:50:26.067Z,28.47
2022-09-21T12:55:45.453Z,28.25
2022-09-21T13:00:56.501Z,28.98
2022-09-21T13:06:30.301Z,25.48
2022-09-21T13:11:35.250Z,26.65
2022-09-21T13:16:40.591Z,26.54
2022-09-21T13:21:45.001Z,26.33
2022-09-21T13:26:54.368Z,25.93
2022-09-21T13:32:00.910Z,26.13
2022-09-21T13:37:34.502Z,28.80
2022-09-21T13:42:48.782Z,29.11
2022-09-21T13:47:55.313Z,28.52
2022-09-21T13:53:00.484Z,29.08
2022-09-21T13:58:05.890Z,27.84
2022-09-21T14:03:23.314Z,27.28
2022-09-21T14:08:31.200Z,27.21
2022-09-21T14:13:36.112Z,25.89
2022-09-21T14:18:40.778Z,26.22
2022-09-21T14:24:20.209Z,25.64
2022-09-21T14:29:27.253Z,25.83
2022-09-21T14:34:36.891Z,25.61
2022-09-21T14:39:44.214Z,26.02
2022-09-21T14:44:49.839Z,25.87
2022-09-21T14:50:14.407Z,25.14
2022-09-21T14:55:21.694Z,25.55
2022-09-21T15:00:27.146Z,25.57
2022-09-21T15:05:36.198Z,26.37
2022-09-21T15:10:57.849Z,26.53
2022-09-21T15:16:11.276Z,26.18
2022-09-21T15:21:24.110Z,26.38
2022-09-21T15:26:30.409Z,26.33
2022-09-21T15:31:34.923Z,26.42
2022-09-21T15:36:42.634Z,25.99
2022-09-21T15:41:49.797Z,25.96
2022-09-21T15:46:57.790Z,26.07
2022-09-21T15:52:06.251Z,25.60
2022-09-21T15:57:25.629Z,26.06
2022-09-21T16:02:34.479Z,26.39
2022-09-21T16:07:39.686Z,26.26
2022-09-21T16:12:43.731Z,25.88
2022-09-21T16:18:01.266Z,24.76
2022-09-21T16:23:07.941Z,25.15
2022-09-21T16:28:31.833Z,24.25
2022-09-21T16:33:42.647Z,24.63
2022-09-21T16:38:48.021Z,24.28
2022-09-21T16:43:52.024Z,23.82
2022-09-21T16:48:55.460Z,24.10
2022-09-21T16:54:00.139Z,23.92
2022-09-21T16:59:10.370Z,23.91
2022-09-21T17:04:13.931Z,23.98
2022-09-21T17:09:29.543Z,23.90
2022-09-21T17:14:35.109Z,23.67
2022-09-21T17:19:39.074Z,23.41
2022-09-21T17:24:52.738Z,23.07
2022-09-21T17:29:56.420Z,22.71
2022-09-21T17:35:02.012Z,22.15
2022-09-21T17:40:10.708Z,21.68
2022-09-21T17:45:21.234Z,21.35
2022-09-21T17:50:28.517Z,21.18
2022-09-21T17:55:34.113Z,20.76
2022-09-21T18:00:54.397Z,20.55
2022-09-21T18:06:07.516Z,20.31
2022-09-21T18:11:42.824Z,20.21
2022-09-21T18:16:56.539Z,19.90
2022-09-21T18:22:03.521Z,19.67
2022-09-21T18:27:10.865Z,19.66
2022-09-21T18:32:28.947Z,19.48
2022-09-21T18:37:37.248Z,19.45
2022-09-21T18:42:48.951Z,19.28
2022-09-21T18:48:21.355Z,19.11
2022-09-21T18:53:28.608Z,19.02
2022-09-21T18:58:34.110Z,18.92
2022-09-21T19:03:38.641Z,18.72
2022-09-21T19:08:45.957Z,18.68
2022-09-21T19:13:56.007Z,18.59
2022-09-21T19:19:12.095Z,18.36
2022-09-21T19:24:21.549Z,18.37
2022-09-21T19:29:38.158Z,18.27
2022-09-21T19:34:41.893Z,18.06
2022-09-21T19:39:45.649Z,18.05
2022-09-21T19:45:01.294Z,17.70
2022-09-21T19:50:17.622Z,17.76
2022-09-21T19:55:40.075Z,17.70
2022-09-21T20:00:45.377Z,17.52
2022-09-21T20:06:02.424Z,17.58
2022-09-21T20:11:10.976Z,17.53
2022-09-21T20:16:27.439Z,17.34
2022-09-21T20:21:37.149Z,17.16
2022-09-21T20:26:40.567Z,17.18
2022-09-21T20:31:45.523Z,17.08
2022-09-21T20:36:48.931Z,17.00
2022-09-21T20:41:52.408Z,16.78
2022-09-21T20:46:57.254Z,16.80
2022-09-21T20:52:01.242Z,16.72
2022-09-21T20:57:05.081Z,16.65
2022-09-21T21:02:10.960Z,16.63
2022-09-21T21:07:14.398Z,16.58
2022-09-21T21:12:17.842Z,16.56
2022-09-21T21:17:22.728Z,16.32
2022-09-21T21:22:26.301Z,16.34
2022-09-21T21:27:29.687Z,16.35
2022-09-21T21:32:34.938Z,16.31
2022-09-21T21:37:40.258Z,16.31
2022-09-21T21:42:43.672Z,16.22
2022-09-21T21:47:48.463Z,16.20
2022-09-21T21:52:51.921Z,16.17
2022-09-21T21:57:56.242Z,16.08
2022-09-21T22:03:02.436Z,15.99
2022-09-21T22:08:06.369Z,15.97
2022-09-21T22:13:09.779Z,15.80
2022-09-21T22:18:15.007Z,15.68
2022-09-21T22:23:18.449Z,15.66
2022-09-21T22:28:21.858Z,15.70
2022-09-21T22:33:31.154Z,15.72
2022-09-21T22:38:41.904Z,15.68
2022-09-21T22:43:46.854Z,15.63
2022-09-21T22:48:51.730Z,15.60
2022-09-21T22:53:55.281Z,15.56
2022-09-21T22:59:00.164Z,15.34
2022-09-21T23:04:07.038Z,15.40
2022-09-21T23:09:19.512Z,15.35
2022-09-21T23:14:23.696Z,15.18
2022-09-21T23:19:28.550Z,15.12
2022-09-21T23:24:31.931Z,15.13
2022-09-21T23:29:35.319Z,15.11
2022-09-21T23:34:40.202Z,15.11
2022-09-21T23:39:43.656Z,15.04
2022-09-21T23:44:47.048Z,14.83
2022-09-21T23:49:51.819Z,14.96
2022-09-21T23:54:55.219Z,14.94
2022-09-21T23:59:58.603Z,14.77
